createdAt,value
2018-04-22T00:01:35.911Z,37.08
2018-04-22T00:04:02.559Z,38.03
2018-04-22T00:06:29.249Z,42.90
2018-04-22T00:08:55.874Z,35.58
2018-04-22T00:11:22.607Z,38.63
2018-04-22T00:13:49.249Z,38.35
2018-04-22T00:16:15.991Z,39.85
2018-04-22T00:18:42.732Z,37.00
2018-04-22T00:21:09.368Z,37.40
2018-04-22T00:23:35.999Z,36.53
2018-04-22T00:26:02.742Z,38.47
2018-04-22T00:28:29.375Z,38.58
2018-04-22T00:30:56.022Z,40.00
2018-04-22T00:33:22.767Z,39.58
2018-04-22T00:35:49.410Z,38.17
2018-04-22T00:38:16.161Z,38.22
2018-04-22T00:40:42.893Z,43.47
2018-04-22T00:43:09.516Z,40.03
2018-04-22T00:45:36.171Z,38.92
2018-04-22T00:48:02.819Z,42.47
2018-04-22T00:50:29.447Z,42.13
2018-04-22T00:52:56.623Z,41.67
2018-04-22T00:55:23.338Z,41.47
2018-04-22T00:57:49.970Z,45.40
2018-04-22T01:00:16.601Z,40.28
2018-04-22T01:02:43.363Z,41.75
2018-04-22T01:05:10.063Z,46.97
2018-04-22T01:07:36.764Z,41.53
2018-04-22T01:10:03.422Z,42.17
2018-04-22T01:12:30.106Z,44.40
2018-04-22T01:14:56.733Z,41.13
2018-04-22T01:17:23.380Z,42.62
2018-04-22T01:19:50.016Z,42.55
2018-04-22T01:22:16.701Z,42.00
2018-04-22T01:24:43.461Z,41.00
2018-04-22T01:27:10.062Z,43.60
2018-04-22T01:29:36.801Z,43.22
2018-04-22T01:32:03.455Z,44.35
2018-04-22T01:34:30.079Z,43.72
2018-04-22T01:36:56.708Z,42.42
2018-04-22T01:39:23.349Z,42.28
2018-04-22T01:41:49.981Z,44.10
2018-04-22T01:44:16.616Z,43.65
2018-04-22T01:46:43.260Z,43.35
2018-04-22T01:49:09.914Z,42.85
2018-04-22T01:51:36.655Z,42.35
2018-04-22T01:54:03.321Z,43.90
2018-04-22T01:56:29.953Z,43.58
2018-04-22T01:58:56.674Z,43.22
2018-04-22T02:01:23.312Z,42.53
2018-04-22T02:03:49.977Z,45.83
2018-04-22T02:06:16.611Z,44.15
2018-04-22T02:08:43.357Z,44.67
2018-04-22T02:11:10.076Z,43.53
2018-04-22T02:13:36.767Z,46.83
2018-04-22T02:16:03.416Z,44.58
2018-04-22T02:18:30.050Z,43.08
2018-04-22T02:20:56.687Z,44.08
2018-04-22T02:23:23.375Z,47.80
2018-04-22T02:25:49.997Z,46.22
2018-04-22T02:28:16.622Z,44.33
2018-04-22T02:30:43.270Z,43.80
2018-04-22T02:33:09.912Z,43.15
2018-04-22T02:35:36.543Z,45.80
2018-04-22T02:38:03.306Z,46.25
2018-04-22T02:40:30.046Z,44.85
2018-04-22T02:42:56.787Z,47.45
2018-04-22T02:45:23.433Z,46.05
2018-04-22T02:47:50.167Z,45.58
2018-04-22T02:50:16.799Z,44.25
2018-04-22T02:52:43.452Z,48.40
2018-04-22T02:55:10.084Z,44.17
2018-04-22T02:57:36.727Z,53.17
2018-04-22T03:00:03.373Z,47.47
2018-04-22T03:02:29.999Z,44.88
2018-04-22T03:04:56.626Z,45.85
2018-04-22T03:07:23.274Z,45.20
2018-04-22T03:09:49.902Z,47.08
2018-04-22T03:12:16.559Z,49.50
2018-04-22T03:14:43.220Z,46.97
2018-04-22T03:17:09.937Z,44.33
2018-04-22T03:19:36.680Z,45.83
2018-04-22T03:22:03.448Z,46.60
2018-04-22T03:24:30.170Z,44.75
2018-04-22T03:26:56.804Z,44.88
2018-04-22T03:29:23.455Z,43.60
2018-04-22T03:31:50.097Z,47.17
2018-04-22T03:34:16.727Z,47.40
2018-04-22T03:36:43.459Z,45.28
2018-04-22T03:39:10.087Z,45.70
2018-04-22T03:41:36.710Z,48.42
2018-04-22T03:44:03.360Z,47.85
2018-04-22T03:46:30.020Z,47.78
2018-04-22T03:48:56.766Z,45.05
2018-04-22T03:51:23.471Z,45.58
2018-04-22T03:53:50.100Z,47.45
2018-04-22T03:56:16.740Z,46.58
2018-04-22T03:58:43.387Z,48.33
2018-04-22T04:01:10.082Z,44.70
2018-04-22T04:03:36.803Z,49.65
2018-04-22T04:06:03.547Z,49.90
2018-04-22T04:08:30.183Z,53.50
2018-04-22T04:10:56.843Z,50.15
2018-04-22T04:13:23.585Z,53.83
2018-04-22T04:15:50.235Z,48.00
2018-04-22T04:18:31.782Z,48.15
2018-04-22T04:21:04.270Z,44.10
2018-04-22T04:23:36.947Z,49.08
2018-04-22T04:26:09.435Z,46.40
2018-04-22T04:28:36.167Z,44.22
2018-04-22T04:31:02.928Z,45.42
2018-04-22T04:33:29.569Z,47.58
2018-04-22T04:35:56.288Z,47.47
2018-04-22T04:38:22.916Z,46.45
2018-04-22T04:40:49.562Z,45.30
2018-04-22T04:43:17.149Z,45.45
2018-04-22T04:45:43.862Z,45.75
2018-04-22T04:48:10.612Z,47.58
2018-04-22T04:50:37.347Z,44.25
2018-04-22T04:53:04.215Z,44.35
2018-04-22T04:55:30.937Z,42.35
2018-04-22T04:57:57.671Z,44.63
2018-04-22T05:00:24.304Z,42.53
2018-04-22T05:02:50.932Z,44.33
2018-04-22T05:05:17.596Z,40.05
2018-04-22T05:07:44.233Z,41.83
2018-04-22T05:10:10.869Z,41.20
2018-04-22T05:12:37.605Z,45.17
2018-04-22T05:15:04.249Z,41.35
2018-04-22T05:17:30.915Z,41.00
2018-04-22T05:19:57.558Z,42.50
2018-04-22T05:22:24.192Z,40.35
2018-04-22T05:24:50.911Z,44.70
2018-04-22T05:27:17.673Z,39.80
2018-04-22T05:29:44.396Z,41.05
2018-04-22T05:32:11.026Z,40.53
2018-04-22T05:34:37.666Z,40.40
2018-04-22T05:37:04.296Z,39.22
2018-04-22T05:39:30.922Z,45.63
2018-04-22T05:41:57.584Z,42.67
2018-04-22T05:44:24.216Z,41.00
2018-04-22T05:46:50.874Z,38.45
2018-04-22T05:49:17.514Z,39.22
2018-04-22T05:51:44.137Z,40.15
2018-04-22T05:54:10.771Z,42.58
2018-04-22T05:56:37.419Z,37.28
2018-04-22T05:59:04.164Z,39.67
2018-04-22T06:01:30.801Z,35.53
2018-04-22T06:03:57.461Z,34.45
2018-04-22T06:06:24.183Z,39.05
2018-04-22T06:08:50.813Z,38.15
2018-04-22T06:11:17.470Z,38.00
2018-04-22T06:13:44.103Z,36.05
2018-04-22T06:16:10.738Z,37.58
2018-04-22T06:18:37.374Z,38.67
2018-04-22T06:21:04.125Z,36.38
2018-04-22T06:23:30.758Z,43.75
2018-04-22T06:25:57.499Z,47.62
2018-04-22T06:28:24.238Z,34.78
2018-04-22T06:30:50.988Z,35.15
2018-04-22T06:33:17.645Z,34.97
2018-04-22T06:35:44.277Z,30.67
2018-04-22T06:38:10.907Z,31.90
2018-04-22T06:40:37.551Z,36.85
2018-04-22T06:43:04.189Z,37.15
2018-04-22T06:45:30.823Z,36.58
2018-04-22T06:47:57.467Z,34.65
2018-04-22T06:50:24.095Z,36.75
2018-04-22T06:52:50.717Z,35.67
2018-04-22T06:55:17.755Z,33.40
2018-04-22T06:57:44.444Z,35.10
2018-04-22T07:00:11.186Z,36.38
2018-04-22T07:02:37.831Z,34.35
2018-04-22T07:05:04.567Z,34.80
2018-04-22T07:07:31.208Z,36.55
2018-04-22T07:09:57.945Z,34.45
2018-04-22T07:12:24.662Z,32.22
2018-04-22T07:14:51.301Z,34.10
2018-04-22T07:17:17.999Z,36.03
2018-04-22T07:19:44.632Z,27.85
2018-04-22T07:22:11.271Z,31.05
2018-04-22T07:24:37.959Z,33.70
2018-04-22T07:27:04.590Z,35.30
2018-04-22T07:29:31.223Z,35.00
2018-04-22T07:31:57.871Z,34.65
2018-04-22T07:34:24.523Z,35.22
2018-04-22T07:36:51.155Z,35.35
2018-04-22T07:39:17.896Z,31.00
2018-04-22T07:41:44.527Z,32.35
2018-04-22T07:44:11.154Z,31.70
2018-04-22T07:46:37.806Z,32.00
2018-04-22T07:49:04.455Z,33.70
2018-04-22T07:51:31.091Z,34.83
2018-04-22T07:53:57.741Z,33.78
2018-04-22T07:56:24.386Z,28.92
2018-04-22T07:58:51.111Z,31.52
2018-04-22T08:01:17.873Z,29.85
2018-04-22T08:03:44.504Z,29.67
2018-04-22T08:06:11.230Z,29.55
2018-04-22T08:08:37.881Z,27.50
2018-04-22T08:11:04.516Z,27.77
2018-04-22T08:13:31.138Z,28.80
2018-04-22T08:15:57.787Z,27.50
2018-04-22T08:18:24.414Z,25.45
2018-04-22T08:20:51.109Z,26.35
2018-04-22T08:23:17.806Z,19.75
2018-04-22T08:25:44.551Z,23.25
2018-04-22T08:28:11.181Z,22.87
2018-04-22T08:30:37.929Z,22.20
2018-04-22T08:33:04.551Z,23.50
2018-04-22T08:35:31.186Z,22.67
2018-04-22T08:37:57.839Z,21.35
2018-04-22T08:40:24.482Z,23.73
2018-04-22T08:42:51.149Z,21.80
2018-04-22T08:45:17.865Z,27.30
2018-04-22T08:47:44.490Z,20.70
2018-04-22T08:50:11.120Z,25.30
2018-04-22T08:52:37.783Z,22.40
2018-04-22T08:55:04.402Z,23.12
2018-04-22T08:57:31.033Z,20.42
2018-04-22T08:59:57.688Z,21.30
2018-04-22T09:02:24.333Z,20.83
2018-04-22T09:04:50.969Z,21.02
2018-04-22T09:07:17.719Z,19.62
2018-04-22T09:09:44.463Z,24.80
2018-04-22T09:12:11.088Z,16.37
2018-04-22T09:14:37.823Z,19.02
2018-04-22T09:17:04.451Z,19.45
2018-04-22T09:19:31.126Z,18.10
2018-04-22T09:21:57.804Z,17.98
2018-04-22T09:24:24.419Z,16.55
2018-04-22T09:26:51.046Z,18.00
2018-04-22T09:29:17.697Z,21.37
2018-04-22T09:31:44.322Z,19.95
2018-04-22T09:34:11.061Z,21.80
2018-04-22T09:36:37.804Z,21.60
2018-04-22T09:39:05.250Z,22.27
2018-04-22T09:41:31.883Z,19.48
2018-04-22T09:43:58.639Z,19.73
2018-04-22T09:46:25.378Z,15.52
2018-04-22T09:48:52.012Z,19.05
2018-04-22T09:51:18.680Z,22.13
2018-04-22T09:53:45.312Z,20.23
2018-04-22T09:56:12.030Z,18.75
2018-04-22T09:58:38.705Z,17.52
2018-04-22T10:01:05.343Z,19.20
2018-04-22T10:03:31.977Z,20.17
2018-04-22T10:06:01.431Z,18.20
2018-04-22T10:08:28.064Z,20.33
2018-04-22T10:10:54.733Z,19.58
2018-04-22T10:13:21.364Z,19.98
2018-04-22T10:15:48.115Z,18.98
2018-04-22T10:18:14.750Z,18.58
2018-04-22T10:20:41.396Z,17.92
2018-04-22T10:23:08.030Z,18.75
2018-04-22T10:25:34.779Z,16.95
2018-04-22T10:28:01.428Z,18.40
2018-04-22T10:30:28.071Z,18.08
2018-04-22T10:32:54.711Z,16.80
2018-04-22T10:35:21.363Z,15.63
2018-04-22T10:37:48.074Z,13.65
2018-04-22T10:40:14.815Z,15.80
2018-04-22T10:42:41.466Z,19.40
2018-04-22T10:45:08.103Z,34.78
2018-04-22T10:47:34.849Z,30.48
2018-04-22T10:50:01.506Z,19.02
2018-04-22T10:52:28.232Z,17.23
2018-04-22T10:54:55.108Z,18.27
2018-04-22T10:57:22.133Z,14.98
2018-04-22T10:59:49.144Z,13.68
2018-04-22T11:02:16.692Z,12.80
2018-04-22T11:04:44.222Z,21.87
2018-04-22T11:07:12.415Z,19.67
2018-04-22T11:09:39.323Z,15.13
2018-04-22T11:12:07.991Z,23.40
2018-04-22T11:14:35.734Z,28.10
2018-04-22T11:17:02.929Z,27.70
2018-04-22T11:19:30.713Z,24.87
2018-04-22T11:21:57.740Z,19.73
2018-04-22T11:24:24.686Z,17.15
2018-04-22T11:26:51.412Z,17.07
2018-04-22T11:29:18.047Z,11.30
2018-04-22T11:31:44.787Z,15.60
2018-04-22T11:34:11.535Z,29.40
2018-04-22T11:36:38.907Z,20.60
2018-04-22T11:39:07.188Z,10.03
2018-04-22T11:41:34.147Z,16.57
2018-04-22T11:44:00.767Z,8.73
2018-04-22T11:46:27.482Z,31.03
2018-04-22T11:48:54.138Z,15.00
2018-04-22T11:51:20.781Z,17.00
2018-04-22T11:53:47.407Z,24.17
2018-04-22T11:56:14.152Z,25.87
2018-04-22T11:58:40.789Z,19.63
2018-04-22T12:01:07.423Z,12.97
2018-04-22T12:03:34.063Z,14.93
2018-04-22T12:06:01.748Z,18.40
2018-04-22T12:08:28.381Z,14.70
2018-04-22T12:10:55.026Z,9.83
2018-04-22T12:13:21.736Z,8.77
2018-04-22T12:15:48.362Z,17.77
2018-04-22T12:18:15.029Z,11.27
2018-04-22T12:20:41.659Z,9.40
2018-04-22T12:23:08.395Z,9.33
2018-04-22T12:25:35.034Z,9.67
2018-04-22T12:28:01.662Z,13.17
2018-04-22T12:30:28.289Z,9.70
2018-04-22T12:32:54.930Z,11.33
2018-04-22T12:35:21.606Z,10.73
2018-04-22T12:37:48.267Z,11.23
2018-04-22T12:40:14.900Z,7.97
2018-04-22T12:42:41.616Z,6.20
2018-04-22T12:45:08.239Z,11.63
2018-04-22T12:47:34.996Z,11.53
2018-04-22T12:50:01.630Z,8.70
2018-04-22T12:52:28.276Z,7.57
2018-04-22T12:54:55.012Z,8.83
2018-04-22T12:57:21.646Z,5.87
2018-04-22T12:59:48.277Z,12.43
2018-04-22T13:02:14.927Z,6.97
2018-04-22T13:04:41.564Z,8.20
2018-04-22T13:07:08.229Z,7.30
2018-04-22T13:09:34.947Z,7.40
2018-04-22T13:12:01.600Z,7.20
2018-04-22T13:14:28.231Z,6.80
2018-04-22T13:16:54.974Z,7.13
2018-04-22T13:19:21.707Z,6.80
2018-04-22T13:21:48.328Z,7.30
2018-04-22T13:24:14.950Z,8.77
2018-04-22T13:26:41.633Z,9.13
2018-04-22T13:29:08.256Z,9.60
2018-04-22T13:31:35.014Z,10.47
2018-04-22T13:34:01.760Z,12.57
2018-04-22T13:36:28.386Z,12.47
2018-04-22T13:38:55.039Z,7.40
2018-04-22T13:41:21.656Z,11.07
2018-04-22T13:43:48.304Z,9.10
2018-04-22T13:46:14.951Z,6.70
2018-04-22T13:48:41.688Z,7.23
2018-04-22T13:51:08.332Z,8.70
2018-04-22T13:53:35.072Z,7.70
2018-04-22T13:56:01.721Z,10.43
2018-04-22T13:58:28.444Z,7.17
2018-04-22T14:00:55.196Z,9.27
2018-04-22T14:03:21.901Z,9.37
2018-04-22T14:05:49.830Z,6.20
2018-04-22T14:08:18.585Z,9.27
2018-04-22T14:10:45.227Z,8.37
2018-04-22T14:13:11.851Z,8.23
2018-04-22T14:15:38.603Z,10.03
2018-04-22T14:18:05.248Z,7.70
2018-04-22T14:20:31.987Z,7.17
2018-04-22T14:22:58.613Z,7.50
2018-04-22T14:25:25.288Z,9.37
2018-04-22T14:27:51.891Z,6.27
2018-04-22T14:30:18.544Z,7.20
2018-04-22T14:32:45.292Z,6.23
2018-04-22T14:35:11.911Z,6.50
2018-04-22T14:37:38.558Z,8.40
2018-04-22T14:40:05.320Z,7.40
2018-04-22T14:42:31.939Z,6.83
2018-04-22T14:45:04.634Z,10.00
2018-04-22T14:47:31.257Z,10.67
2018-04-22T14:49:57.882Z,9.70
2018-04-22T14:52:24.524Z,11.17
2018-04-22T14:54:51.184Z,9.30
2018-04-22T14:57:17.920Z,6.77
2018-04-22T14:59:44.546Z,10.90
2018-04-22T15:02:11.171Z,7.50
2018-04-22T15:04:39.030Z,5.77
2018-04-22T15:07:05.812Z,6.43
2018-04-22T15:09:32.443Z,6.93
2018-04-22T15:11:59.062Z,7.13
2018-04-22T15:14:25.683Z,8.77
2018-04-22T15:16:52.315Z,6.17
2018-04-22T15:19:18.940Z,5.53
2018-04-22T15:21:45.580Z,6.00
2018-04-22T15:24:12.195Z,6.67
2018-04-22T15:26:38.818Z,6.00
2018-04-22T15:29:05.563Z,4.60
2018-04-22T15:31:32.203Z,3.70
2018-04-22T15:33:58.834Z,10.27
2018-04-22T15:36:25.554Z,4.23
2018-04-22T15:38:52.218Z,6.17
2018-04-22T15:41:18.860Z,8.63
2018-04-22T15:43:45.523Z,6.30
2018-04-22T15:46:12.243Z,3.10
2018-04-22T15:48:38.982Z,3.57
2018-04-22T15:51:05.718Z,9.43
2018-04-22T15:53:32.351Z,3.93
2018-04-22T15:55:59.000Z,3.87
2018-04-22T15:58:25.738Z,3.90
2018-04-22T16:00:52.383Z,3.97
2018-04-22T16:03:19.008Z,6.77
2018-04-22T16:05:45.664Z,5.43
2018-04-22T16:08:12.295Z,4.47
2018-04-22T16:10:38.938Z,4.33
2018-04-22T16:13:05.568Z,5.10
2018-04-22T16:15:32.188Z,7.27
2018-04-22T16:17:58.827Z,5.40
2018-04-22T16:20:25.496Z,7.93
2018-04-22T16:22:52.127Z,5.27
2018-04-22T16:25:19.701Z,4.73
2018-04-22T16:27:46.438Z,7.93
2018-04-22T16:30:13.069Z,4.83
2018-04-22T16:32:39.711Z,5.20
2018-04-22T16:35:06.352Z,5.73
2018-04-22T16:37:32.977Z,6.10
2018-04-22T16:39:59.607Z,6.50
2018-04-22T16:42:26.240Z,6.00
2018-04-22T16:44:52.871Z,6.10
2018-04-22T16:47:19.517Z,8.87
2018-04-22T16:49:46.145Z,6.83
2018-04-22T16:52:12.758Z,6.27
2018-04-22T16:54:39.468Z,5.13
2018-04-22T16:57:06.201Z,5.60
2018-04-22T16:59:32.939Z,11.87
2018-04-22T17:01:59.562Z,9.63
2018-04-22T17:04:26.180Z,7.13
2018-04-22T17:06:52.811Z,6.67
2018-04-22T17:09:19.502Z,6.90
2018-04-22T17:11:46.243Z,5.80
2018-04-22T17:14:12.863Z,6.23
2018-04-22T17:16:39.521Z,8.27
2018-04-22T17:19:06.258Z,5.60
2018-04-22T17:21:32.889Z,9.00
2018-04-22T17:23:59.531Z,5.97
2018-04-22T17:26:26.161Z,7.30
2018-04-22T17:28:52.844Z,6.03
2018-04-22T17:31:19.471Z,6.27
2018-04-22T17:33:46.087Z,9.93
2018-04-22T17:36:12.732Z,6.77
2018-04-22T17:38:39.356Z,7.30
2018-04-22T17:41:06.011Z,7.30
2018-04-22T17:43:32.646Z,7.23
2018-04-22T17:45:59.273Z,7.50
2018-04-22T17:48:25.953Z,6.85
2018-04-22T17:50:52.672Z,9.30
2018-04-22T17:53:19.310Z,8.98
2018-04-22T17:55:45.943Z,8.00
2018-04-22T17:58:12.575Z,10.48
2018-04-22T18:00:39.205Z,7.37
2018-04-22T18:03:05.860Z,11.30
2018-04-22T18:05:32.499Z,11.48
2018-04-22T18:07:59.120Z,9.30
2018-04-22T18:10:25.783Z,11.12
2018-04-22T18:12:52.530Z,11.60
2018-04-22T18:15:19.267Z,15.60
2018-04-22T18:17:45.919Z,13.02
2018-04-22T18:20:12.559Z,11.40
2018-04-22T18:22:39.291Z,13.62
2018-04-22T18:25:05.936Z,12.18
2018-04-22T18:27:32.672Z,10.65
2018-04-22T18:29:59.407Z,10.90
2018-04-22T18:32:26.155Z,13.77
2018-04-22T18:34:52.788Z,16.02
2018-04-22T18:37:19.532Z,15.50
2018-04-22T18:39:46.157Z,9.85
2018-04-22T18:42:12.798Z,14.00
2018-04-22T18:44:39.482Z,10.30
2018-04-22T18:47:06.091Z,17.15
2018-04-22T18:49:32.830Z,14.27
2018-04-22T18:51:59.459Z,11.15
2018-04-22T18:54:26.103Z,12.52
2018-04-22T18:56:52.846Z,10.95
2018-04-22T18:59:19.462Z,11.15
2018-04-22T19:01:46.115Z,8.93
2018-04-22T19:04:12.765Z,8.75
2018-04-22T19:06:39.433Z,12.80
2018-04-22T19:09:06.060Z,12.30
2018-04-22T19:11:32.692Z,10.07
2018-04-22T19:13:59.419Z,12.73
2018-04-22T19:16:26.051Z,12.88
2018-04-22T19:18:52.694Z,8.80
2018-04-22T19:21:19.342Z,13.82
2018-04-22T19:23:46.082Z,11.88
2018-04-22T19:26:12.820Z,10.00
2018-04-22T19:28:39.451Z,11.38
2018-04-22T19:31:06.093Z,11.18
2018-04-22T19:33:32.727Z,12.40
2018-04-22T19:35:59.385Z,12.73
2018-04-22T19:38:26.121Z,10.40
2018-04-22T19:40:52.926Z,9.20
2018-04-22T19:43:19.702Z,12.35
2018-04-22T19:45:46.349Z,9.88
2018-04-22T19:48:13.076Z,13.45
2018-04-22T19:50:39.734Z,15.63
2018-04-22T19:53:06.372Z,14.15
2018-04-22T19:55:33.119Z,15.00
2018-04-22T19:58:00.451Z,14.70
2018-04-22T20:00:27.075Z,18.87
2018-04-22T20:02:53.758Z,11.90
2018-04-22T20:05:20.486Z,17.60
2018-04-22T20:07:47.141Z,15.25
2018-04-22T20:10:13.782Z,15.48
2018-04-22T20:12:40.422Z,18.33
2018-04-22T20:15:07.139Z,18.92
2018-04-22T20:17:33.788Z,14.30
2018-04-22T20:20:00.440Z,16.20
2018-04-22T20:22:27.155Z,13.90
2018-04-22T20:24:53.782Z,13.88
2018-04-22T20:27:20.532Z,13.70
2018-04-22T20:29:47.181Z,13.57
2018-04-22T20:32:13.829Z,14.60
2018-04-22T20:34:40.579Z,14.82
2018-04-22T20:37:07.307Z,15.15
2018-04-22T20:39:34.045Z,12.37
2018-04-22T20:42:00.677Z,13.00
2018-04-22T20:44:27.323Z,13.68
2018-04-22T20:46:53.956Z,14.10
2018-04-22T20:49:20.589Z,12.23
2018-04-22T20:51:47.227Z,13.02
2018-04-22T20:54:13.854Z,17.62
2018-04-22T20:56:40.504Z,14.65
2018-04-22T20:59:07.146Z,13.95
2018-04-22T21:01:33.806Z,14.70
2018-04-22T21:04:00.457Z,11.07
2018-04-22T21:06:27.096Z,10.98
2018-04-22T21:08:53.810Z,16.08
2018-04-22T21:11:20.443Z,12.20
2018-04-22T21:13:47.192Z,13.40
2018-04-22T21:16:13.833Z,16.70
2018-04-22T21:18:40.464Z,16.02
2018-04-22T21:21:07.119Z,15.40
2018-04-22T21:23:33.746Z,14.30
2018-04-22T21:26:00.496Z,15.65
2018-04-22T21:28:27.858Z,15.95
2018-04-22T21:30:54.488Z,17.35
2018-04-22T21:33:21.138Z,12.13
2018-04-22T21:35:47.782Z,15.02
2018-04-22T21:38:14.421Z,35.85
2018-04-22T21:40:41.067Z,15.45
2018-04-22T21:43:07.690Z,6.93
2018-04-22T21:45:34.413Z,6.85
2018-04-22T21:48:01.038Z,11.60
2018-04-22T21:50:27.678Z,14.02
2018-04-22T21:52:54.324Z,13.25
2018-04-22T21:55:20.960Z,14.32
2018-04-22T21:57:47.616Z,13.93
2018-04-22T22:00:14.351Z,12.55
2018-04-22T22:02:41.095Z,14.73
2018-04-22T22:05:07.745Z,15.18
2018-04-22T22:07:34.839Z,16.37
2018-04-22T22:10:01.500Z,16.80
2018-04-22T22:12:28.145Z,14.27
2018-04-22T22:14:54.788Z,13.55
2018-04-22T22:17:21.426Z,13.25
2018-04-22T22:19:48.063Z,14.20
2018-04-22T22:22:14.828Z,14.87
2018-04-22T22:24:41.458Z,15.18
2018-04-22T22:27:08.152Z,14.45
2018-04-22T22:29:34.795Z,15.90
2018-04-22T22:32:01.432Z,16.60
2018-04-22T22:34:28.115Z,17.08
2018-04-22T22:36:54.767Z,17.20
2018-04-22T22:39:21.504Z,16.98
2018-04-22T22:41:48.148Z,15.55
2018-04-22T22:44:14.774Z,14.93
2018-04-22T22:46:41.427Z,16.12
2018-04-22T22:49:08.780Z,15.18
2018-04-22T22:51:35.416Z,15.10
2018-04-22T22:54:02.070Z,15.10
2018-04-22T22:56:28.814Z,15.13
2018-04-22T22:58:55.535Z,17.10
2018-04-22T23:01:22.280Z,16.42
2018-04-22T23:03:48.911Z,19.80
2018-04-22T23:06:15.553Z,16.92
2018-04-22T23:08:42.188Z,15.68
2018-04-22T23:11:08.844Z,15.32
2018-04-22T23:13:35.479Z,15.10
2018-04-22T23:16:02.217Z,14.90
2018-04-22T23:18:28.858Z,15.23
2018-04-22T23:20:55.489Z,15.13
2018-04-22T23:23:22.236Z,15.98
2018-04-22T23:25:48.862Z,19.23
2018-04-22T23:28:15.515Z,18.75
2018-04-22T23:30:42.247Z,21.52
2018-04-22T23:33:08.993Z,14.25
2018-04-22T23:35:35.648Z,14.90
2018-04-22T23:38:02.286Z,13.20
2018-04-22T23:40:29.006Z,16.90
2018-04-22T23:42:55.651Z,14.52
2018-04-22T23:45:22.279Z,22.10
2018-04-22T23:47:48.922Z,21.98
2018-04-22T23:50:15.542Z,16.15
2018-04-22T23:52:42.176Z,15.57
2018-04-22T23:55:08.824Z,13.50
2018-04-22T23:57:35.464Z,14.35
